createdAt,value
2023-05-04T00:00:32.200Z,3.65
2023-05-04T00:01:34.758Z,4.05
2023-05-04T00:02:37.163Z,3.72
2023-05-04T00:03:39.637Z,3.60
2023-05-04T00:04:42.953Z,3.90
2023-05-04T00:05:45.644Z,3.80
2023-05-04T00:06:47.912Z,3.70
2023-05-04T00:07:50.095Z,3.42
2023-05-04T00:08:53.096Z,4.03
2023-05-04T00:09:55.217Z,4.10
2023-05-04T00:10:57.458Z,4.20
2023-05-04T00:11:59.769Z,3.70
2023-05-04T00:13:02.137Z,3.60
2023-05-04T00:14:04.386Z,3.97
2023-05-04T00:15:07.049Z,3.85
2023-05-04T00:16:10.898Z,4.10
2023-05-04T00:17:13.353Z,3.80
2023-05-04T00:18:15.495Z,4.05
2023-05-04T00:19:19.254Z,3.50
2023-05-04T00:20:21.591Z,4.03
2023-05-04T00:21:23.853Z,3.90
2023-05-04T00:22:26.301Z,4.35
2023-05-04T00:23:28.491Z,4.38
2023-05-04T00:24:30.727Z,3.90
2023-05-04T00:25:33.130Z,3.90
2023-05-04T00:26:35.349Z,4.00
2023-05-04T00:27:37.651Z,4.13
2023-05-04T00:28:40.046Z,3.83
2023-05-04T00:29:42.193Z,4.00
2023-05-04T00:30:44.485Z,3.40
2023-05-04T00:31:46.854Z,3.97
2023-05-04T00:32:49.177Z,4.07
2023-05-04T00:33:51.595Z,3.92
2023-05-04T00:34:53.785Z,3.70
2023-05-04T00:35:56.329Z,4.18
2023-05-04T00:36:58.683Z,4.30
2023-05-04T00:38:03.308Z,3.63
2023-05-04T00:39:05.493Z,4.32
2023-05-04T00:40:09.036Z,4.07
2023-05-04T00:41:11.544Z,3.92
2023-05-04T00:42:13.792Z,3.78
2023-05-04T00:43:16.352Z,4.40
2023-05-04T00:44:18.683Z,3.75
2023-05-04T00:45:21.505Z,4.05
2023-05-04T00:46:24.038Z,3.88
2023-05-04T00:47:27.117Z,3.78
2023-05-04T00:48:29.509Z,3.90
2023-05-04T00:49:31.832Z,3.67
2023-05-04T00:50:34.903Z,4.15
2023-05-04T00:51:37.825Z,4.38
2023-05-04T00:52:42.011Z,4.20
2023-05-04T00:53:44.557Z,3.95
2023-05-04T00:54:47.678Z,3.92
2023-05-04T00:55:49.917Z,4.00
2023-05-04T00:56:52.169Z,4.18
2023-05-04T00:57:54.430Z,3.80
2023-05-04T00:58:58.458Z,3.90
2023-05-04T01:00:00.908Z,4.10
2023-05-04T01:01:03.753Z,4.03
2023-05-04T01:02:06.578Z,4.03
2023-05-04T01:03:10.183Z,4.22
2023-05-04T01:04:13.102Z,4.97
2023-05-04T01:05:15.638Z,4.80
2023-05-04T01:06:17.763Z,4.53
2023-05-04T01:07:29.528Z,4.13
2023-05-04T01:08:32.871Z,5.03
2023-05-04T01:09:46.484Z,4.63
2023-05-04T01:11:00.667Z,4.40
2023-05-04T01:12:17.874Z,4.07
2023-05-04T01:13:22.344Z,4.07
2023-05-04T01:14:25.344Z,4.20
2023-05-04T01:15:29.135Z,4.43
2023-05-04T01:16:31.458Z,4.15
2023-05-04T01:17:33.762Z,4.38
2023-05-04T01:18:35.950Z,4.35
2023-05-04T01:19:38.441Z,4.43
2023-05-04T01:20:40.999Z,4.20
2023-05-04T01:21:43.200Z,3.88
2023-05-04T01:22:45.436Z,4.28
2023-05-04T01:23:47.708Z,4.32
2023-05-04T01:24:50.631Z,4.40
2023-05-04T01:26:18.758Z,4.30
2023-05-04T01:27:36.250Z,4.72
2023-05-04T01:28:51.646Z,4.38
2023-05-04T01:30:14.711Z,4.78
2023-05-04T01:31:22.761Z,5.00
2023-05-04T01:32:28.982Z,4.57
2023-05-04T01:33:34.717Z,5.05
2023-05-04T01:34:39.425Z,4.40
2023-05-04T01:35:42.070Z,4.75
2023-05-04T01:36:45.827Z,4.25
2023-05-04T01:37:48.070Z,4.75
2023-05-04T01:38:54.789Z,4.63
2023-05-04T01:39:56.938Z,4.70
2023-05-04T01:40:59.357Z,4.40
2023-05-04T01:42:02.430Z,4.63
2023-05-04T01:43:04.612Z,4.55
2023-05-04T01:44:06.951Z,4.82
2023-05-04T01:45:09.917Z,4.78
2023-05-04T01:46:13.542Z,4.78
2023-05-04T01:47:15.765Z,6.90
2023-05-04T01:48:18.285Z,4.82
2023-05-04T01:49:20.523Z,4.57
2023-05-04T01:50:22.666Z,3.90
2023-05-04T01:51:24.990Z,4.45
2023-05-04T01:52:27.232Z,3.95
2023-05-04T01:53:29.432Z,4.32
2023-05-04T01:54:31.767Z,3.92
2023-05-04T01:55:34.023Z,4.30
2023-05-04T01:56:36.425Z,4.55
2023-05-04T01:57:38.646Z,4.53
2023-05-04T01:58:40.969Z,4.07
2023-05-04T01:59:44.013Z,4.15
2023-05-04T02:02:09.001Z,4.13
2023-05-04T02:03:11.579Z,4.35
2023-05-04T02:04:14.064Z,4.25
2023-05-04T02:05:16.322Z,4.50
2023-05-04T02:06:18.561Z,4.10
2023-05-04T02:07:20.783Z,4.45
2023-05-04T02:08:23.011Z,4.85
2023-05-04T02:09:25.235Z,4.82
2023-05-04T02:10:27.410Z,4.90
2023-05-04T02:11:29.582Z,4.95
2023-05-04T02:12:31.866Z,5.13
2023-05-04T02:13:34.454Z,4.47
2023-05-04T02:14:36.680Z,5.22
2023-05-04T02:15:39.957Z,4.57
2023-05-04T02:16:42.199Z,4.55
2023-05-04T02:17:44.799Z,5.10
2023-05-04T02:18:47.076Z,4.93
2023-05-04T02:19:51.317Z,4.95
2023-05-04T02:20:53.653Z,4.32
2023-05-04T02:21:56.167Z,4.55
2023-05-04T02:22:58.382Z,4.82
2023-05-04T02:24:01.419Z,5.07
2023-05-04T02:25:03.702Z,5.13
2023-05-04T02:26:06.869Z,4.80
2023-05-04T02:27:09.094Z,4.97
2023-05-04T02:28:11.354Z,5.00
2023-05-04T02:29:13.553Z,5.30
2023-05-04T02:30:16.072Z,4.63
2023-05-04T02:31:18.318Z,4.68
2023-05-04T02:32:20.518Z,4.90
2023-05-04T02:33:22.730Z,4.70
2023-05-04T02:34:24.962Z,4.72
2023-05-04T02:35:27.158Z,4.32
2023-05-04T02:36:29.593Z,4.45
2023-05-04T02:37:31.845Z,4.60
2023-05-04T02:38:34.182Z,4.32
2023-05-04T02:39:36.453Z,4.60
2023-05-04T02:40:38.713Z,4.93
2023-05-04T02:41:41.043Z,5.10
2023-05-04T02:42:43.203Z,4.88
2023-05-04T02:43:45.600Z,4.80
2023-05-04T02:44:48.000Z,5.05
2023-05-04T02:45:50.266Z,4.55
2023-05-04T02:46:52.400Z,4.43
2023-05-04T02:47:54.617Z,3.97
2023-05-04T02:48:56.919Z,5.05
2023-05-04T02:49:59.121Z,4.80
2023-05-04T02:51:01.586Z,4.90
2023-05-04T02:52:03.805Z,4.65
2023-05-04T02:53:06.131Z,4.85
2023-05-04T02:54:08.491Z,4.80
2023-05-04T02:55:10.952Z,4.80
2023-05-04T02:56:13.177Z,5.40
2023-05-04T02:57:15.452Z,4.80
2023-05-04T02:58:17.900Z,4.95
2023-05-04T02:59:20.120Z,5.32
2023-05-04T03:00:22.687Z,5.57
2023-05-04T03:01:25.002Z,5.28
2023-05-04T03:02:27.262Z,4.97
2023-05-04T03:03:29.413Z,5.65
2023-05-04T03:04:31.654Z,5.55
2023-05-04T03:05:33.831Z,5.50
2023-05-04T03:06:36.279Z,5.10
2023-05-04T03:07:38.431Z,5.03
2023-05-04T03:08:40.719Z,4.93
2023-05-04T03:09:44.208Z,5.13
2023-05-04T03:10:47.479Z,4.57
2023-05-04T03:11:49.832Z,4.85
2023-05-04T03:12:52.119Z,5.18
2023-05-04T03:13:54.843Z,4.88
2023-05-04T03:14:57.151Z,4.50
2023-05-04T03:15:59.423Z,4.95
2023-05-04T03:17:02.170Z,4.70
2023-05-04T03:18:04.547Z,4.90
2023-05-04T03:19:07.160Z,5.18
2023-05-04T03:20:12.680Z,4.72
2023-05-04T03:21:16.252Z,4.90
2023-05-04T03:22:19.104Z,4.75
2023-05-04T03:23:21.684Z,5.20
2023-05-04T03:24:25.505Z,5.25
2023-05-04T03:25:27.969Z,5.35
2023-05-04T03:26:31.137Z,5.22
2023-05-04T03:27:33.730Z,5.32
2023-05-04T03:28:35.990Z,5.82
2023-05-04T03:29:38.556Z,5.75
2023-05-04T03:30:41.714Z,5.43
2023-05-04T03:31:44.881Z,5.75
2023-05-04T03:32:49.778Z,5.90
2023-05-04T03:33:52.344Z,5.95
2023-05-04T03:34:55.816Z,6.47
2023-05-04T03:35:59.750Z,5.80
2023-05-04T03:37:02.052Z,5.65
2023-05-04T03:38:06.508Z,6.40
2023-05-04T03:39:08.758Z,6.20
2023-05-04T03:40:12.436Z,6.03
2023-05-04T03:41:15.467Z,6.30
2023-05-04T03:42:17.699Z,6.10
2023-05-04T03:43:19.957Z,6.03
2023-05-04T03:44:22.373Z,5.93
2023-05-04T03:45:28.323Z,6.22
2023-05-04T03:46:30.847Z,5.70
2023-05-04T03:47:33.393Z,6.80
2023-05-04T03:48:35.651Z,5.65
2023-05-04T03:49:37.917Z,6.50
2023-05-04T03:50:41.832Z,6.68
2023-05-04T03:51:44.071Z,7.38
2023-05-04T03:52:46.212Z,6.82
2023-05-04T03:53:48.488Z,7.53
2023-05-04T03:54:52.952Z,8.73
2023-05-04T03:55:55.267Z,8.02
2023-05-04T03:56:57.817Z,9.23
2023-05-04T03:58:00.713Z,8.52
2023-05-04T03:59:03.969Z,9.40
2023-05-04T04:00:08.924Z,9.50
2023-05-04T04:01:17.133Z,8.40
2023-05-04T04:02:19.457Z,8.63
2023-05-04T04:03:21.833Z,8.20
2023-05-04T04:04:24.459Z,7.38
2023-05-04T04:05:26.943Z,7.60
2023-05-04T04:06:29.895Z,7.78
2023-05-04T04:07:33.142Z,7.68
2023-05-04T04:08:35.841Z,6.88
2023-05-04T04:09:38.484Z,7.38
2023-05-04T04:10:42.292Z,7.22
2023-05-04T04:11:44.518Z,7.82
2023-05-04T04:12:46.754Z,8.40
2023-05-04T04:13:49.081Z,10.57
2023-05-04T04:14:53.776Z,8.35
2023-05-04T04:15:56.116Z,8.38
2023-05-04T04:16:58.401Z,7.30
2023-05-04T04:18:00.765Z,7.10
2023-05-04T04:19:03.144Z,6.85
2023-05-04T04:20:06.170Z,6.53
2023-05-04T04:21:10.068Z,6.13
2023-05-04T04:22:12.359Z,7.40
2023-05-04T04:23:18.366Z,7.97
2023-05-04T04:24:20.574Z,7.90
2023-05-04T04:25:23.187Z,6.80
2023-05-04T04:26:25.405Z,7.35
2023-05-04T04:27:27.698Z,6.88
2023-05-04T04:28:29.837Z,7.07
2023-05-04T04:29:33.727Z,7.10
2023-05-04T04:30:36.014Z,7.05
2023-05-04T04:31:40.243Z,6.50
2023-05-04T04:32:42.622Z,7.13
2023-05-04T04:33:45.038Z,7.53
2023-05-04T04:34:47.227Z,6.78
2023-05-04T04:35:49.700Z,6.88
2023-05-04T04:36:52.209Z,8.38
2023-05-04T04:37:54.577Z,8.88
2023-05-04T04:38:56.833Z,8.45
2023-05-04T04:39:59.515Z,7.30
2023-05-04T04:41:01.814Z,7.20
2023-05-04T04:42:04.176Z,7.28
2023-05-04T04:43:06.398Z,6.97
2023-05-04T04:44:09.000Z,7.40
2023-05-04T04:45:11.494Z,7.38
2023-05-04T04:46:13.865Z,6.95
2023-05-04T04:47:17.697Z,6.90
2023-05-04T04:48:22.001Z,6.90
2023-05-04T04:49:24.215Z,7.45
2023-05-04T04:50:26.379Z,7.32
2023-05-04T04:51:29.392Z,7.65
2023-05-04T04:52:32.839Z,7.45
2023-05-04T04:53:35.259Z,7.40
2023-05-04T04:54:37.684Z,7.15
2023-05-04T04:55:40.157Z,7.00
2023-05-04T04:56:42.612Z,7.03
2023-05-04T04:57:44.971Z,7.20
2023-05-04T04:58:47.401Z,7.00
2023-05-04T04:59:49.643Z,6.90
2023-05-04T05:00:52.808Z,6.47
2023-05-04T05:01:55.037Z,6.70
2023-05-04T05:02:57.394Z,6.88
2023-05-04T05:04:00.177Z,6.95
2023-05-04T05:05:02.471Z,6.70
2023-05-04T05:06:04.651Z,6.85
2023-05-04T05:07:08.945Z,6.72
2023-05-04T05:08:11.381Z,6.38
2023-05-04T05:09:14.191Z,6.32
2023-05-04T05:10:16.602Z,6.20
2023-05-04T05:11:18.840Z,6.05
2023-05-04T05:12:21.208Z,6.47
2023-05-04T05:13:23.357Z,5.97
2023-05-04T05:14:25.579Z,6.90
2023-05-04T05:15:27.775Z,6.97
2023-05-04T05:16:30.046Z,6.78
2023-05-04T05:17:32.343Z,5.80
2023-05-04T05:18:34.636Z,6.50
2023-05-04T05:19:37.314Z,6.85
2023-05-04T05:20:39.735Z,7.50
2023-05-04T05:21:41.889Z,6.75
2023-05-04T05:22:44.369Z,6.60
2023-05-04T05:23:47.049Z,7.68
2023-05-04T05:24:49.254Z,6.95
2023-05-04T05:25:51.643Z,6.53
2023-05-04T05:26:53.775Z,6.93
2023-05-04T05:27:56.104Z,6.88
2023-05-04T05:28:58.234Z,6.28
2023-05-04T05:30:05.769Z,6.30
2023-05-04T05:31:08.544Z,6.80
2023-05-04T05:32:11.107Z,6.03
2023-05-04T05:33:13.804Z,5.97
2023-05-04T05:34:16.151Z,5.95
2023-05-04T05:35:18.415Z,5.70
2023-05-04T05:36:21.326Z,6.40
2023-05-04T05:37:24.024Z,5.40
2023-05-04T05:38:26.793Z,6.10
2023-05-04T05:39:29.166Z,5.60
2023-05-04T05:40:31.379Z,5.80
2023-05-04T05:41:34.341Z,5.93
2023-05-04T05:42:36.889Z,5.63
2023-05-04T05:43:39.139Z,5.70
2023-05-04T05:44:41.421Z,5.75
2023-05-04T05:45:43.606Z,5.32
2023-05-04T05:46:45.916Z,5.60
2023-05-04T05:47:48.336Z,4.95
2023-05-04T05:48:50.654Z,5.10
2023-05-04T05:49:52.858Z,5.47
2023-05-04T05:50:55.071Z,5.15
2023-05-04T05:51:58.859Z,5.47
2023-05-04T05:53:01.119Z,5.50
2023-05-04T05:54:03.391Z,5.50
2023-05-04T05:55:05.933Z,5.20
2023-05-04T05:56:08.179Z,4.90
2023-05-04T05:57:10.355Z,4.80
2023-05-04T05:58:12.547Z,5.30
2023-05-04T05:59:15.635Z,5.13
2023-05-04T06:00:18.237Z,5.03
2023-05-04T06:01:20.506Z,5.43
2023-05-04T06:02:22.756Z,4.90
2023-05-04T06:03:25.249Z,5.30
2023-05-04T06:04:27.574Z,5.43
2023-05-04T06:05:29.761Z,5.55
2023-05-04T06:06:31.977Z,5.50
2023-05-04T06:07:34.213Z,5.38
2023-05-04T06:08:36.418Z,5.63
2023-05-04T06:09:38.723Z,5.15
2023-05-04T06:10:40.980Z,5.30
2023-05-04T06:11:43.224Z,5.20
2023-05-04T06:12:45.520Z,4.68
2023-05-04T06:13:47.722Z,4.80
2023-05-04T06:14:49.928Z,4.50
2023-05-04T06:15:55.128Z,5.35
2023-05-04T06:16:57.365Z,5.35
2023-05-04T06:17:59.655Z,5.32
2023-05-04T06:19:01.867Z,4.97
2023-05-04T06:20:04.926Z,5.75
2023-05-04T06:21:07.284Z,5.10
2023-05-04T06:22:09.561Z,5.55
2023-05-04T06:23:11.733Z,5.75
2023-05-04T06:24:13.925Z,5.43
2023-05-04T06:25:16.334Z,4.93
2023-05-04T06:26:20.047Z,5.07
2023-05-04T06:27:23.717Z,4.47
2023-05-04T06:28:26.602Z,5.50
2023-05-04T06:29:28.813Z,5.28
2023-05-04T06:30:30.981Z,5.05
2023-05-04T06:31:33.213Z,5.60
2023-05-04T06:32:35.557Z,5.65
2023-05-04T06:33:38.787Z,5.65
2023-05-04T06:34:41.010Z,5.72
2023-05-04T06:35:45.067Z,5.78
2023-05-04T06:36:48.968Z,5.72
2023-05-04T06:38:58.670Z,5.97
2023-05-04T06:40:00.971Z,5.90
2023-05-04T06:41:03.139Z,5.40
2023-05-04T06:42:05.633Z,5.30
2023-05-04T06:43:12.333Z,5.93
2023-05-04T06:44:14.845Z,5.82
2023-05-04T06:45:17.086Z,5.03
2023-05-04T06:46:19.352Z,5.97
2023-05-04T06:47:21.576Z,5.60
2023-05-04T06:48:23.767Z,5.47
2023-05-04T06:49:25.977Z,5.60
2023-05-04T06:50:28.206Z,5.40
2023-05-04T06:51:31.165Z,5.50
2023-05-04T06:52:33.339Z,5.85
2023-05-04T06:53:35.458Z,5.72
2023-05-04T06:54:39.954Z,5.47
2023-05-04T06:55:42.146Z,5.85
2023-05-04T06:56:44.471Z,5.90
2023-05-04T06:57:46.834Z,5.97
2023-05-04T06:58:50.119Z,6.47
2023-05-04T06:59:52.677Z,5.88
2023-05-04T07:00:54.881Z,6.13
2023-05-04T07:01:57.661Z,5.85
2023-05-04T07:02:59.877Z,5.93
2023-05-04T07:04:02.187Z,5.50
2023-05-04T07:05:04.726Z,6.03
2023-05-04T07:06:07.328Z,5.78
2023-05-04T07:07:09.742Z,5.43
2023-05-04T07:08:12.532Z,5.75
2023-05-04T07:09:15.180Z,6.10
2023-05-04T07:10:17.537Z,6.50
2023-05-04T07:11:19.732Z,6.10
2023-05-04T07:12:21.976Z,6.20
2023-05-04T07:13:24.650Z,5.72
2023-05-04T07:14:26.886Z,6.05
2023-05-04T07:15:29.589Z,5.88
2023-05-04T07:16:32.973Z,6.60
2023-05-04T07:17:37.174Z,6.43
2023-05-04T07:18:40.411Z,6.63
2023-05-04T07:19:43.013Z,6.78
2023-05-04T07:20:45.310Z,6.88
2023-05-04T07:21:47.632Z,6.95
2023-05-04T07:22:54.977Z,6.45
2023-05-04T07:23:57.209Z,6.57
2023-05-04T07:25:00.953Z,5.85
2023-05-04T07:26:04.287Z,7.35
2023-05-04T07:27:06.440Z,6.32
2023-05-04T07:28:08.585Z,6.43
2023-05-04T07:29:11.357Z,7.30
2023-05-04T07:30:13.739Z,6.47
2023-05-04T07:31:16.083Z,6.90
2023-05-04T07:32:18.867Z,7.65
2023-05-04T07:33:21.110Z,6.72
2023-05-04T07:34:33.977Z,7.07
2023-05-04T07:35:44.423Z,7.18
2023-05-04T07:36:46.680Z,7.13
2023-05-04T07:37:49.638Z,6.32
2023-05-04T07:38:52.174Z,6.95
2023-05-04T07:39:54.393Z,6.85
2023-05-04T07:40:56.985Z,6.57
2023-05-04T07:41:59.640Z,6.85
2023-05-04T07:43:01.809Z,6.60
2023-05-04T07:44:05.647Z,6.28
2023-05-04T07:45:09.791Z,6.45
2023-05-04T07:46:12.748Z,7.30
2023-05-04T07:47:15.019Z,7.25
2023-05-04T07:48:18.142Z,7.57
2023-05-04T07:49:20.480Z,7.75
2023-05-04T07:50:22.875Z,7.85
2023-05-04T07:51:25.382Z,7.40
2023-05-04T07:52:27.606Z,7.50
2023-05-04T07:53:29.886Z,7.43
2023-05-04T07:54:32.241Z,8.05
2023-05-04T07:55:34.657Z,8.25
2023-05-04T07:56:36.889Z,7.30
2023-05-04T07:57:39.904Z,7.95
2023-05-04T07:58:42.088Z,7.55
2023-05-04T07:59:44.290Z,7.38
2023-05-04T08:00:46.646Z,7.75
2023-05-04T08:01:48.911Z,8.38
2023-05-04T08:02:51.851Z,8.10
2023-05-04T08:03:54.300Z,7.60
2023-05-04T08:04:56.552Z,7.95
2023-05-04T08:05:58.792Z,8.00
2023-05-04T08:07:01.300Z,7.93
2023-05-04T08:08:03.461Z,8.23
2023-05-04T08:09:06.489Z,8.20
2023-05-04T08:10:09.710Z,7.70
2023-05-04T08:11:20.011Z,8.30
2023-05-04T08:12:24.125Z,7.95
2023-05-04T08:13:26.610Z,7.75
2023-05-04T08:14:28.783Z,7.40
2023-05-04T08:15:30.936Z,8.00
2023-05-04T08:16:33.923Z,7.35
2023-05-04T08:17:38.035Z,7.75
2023-05-04T08:18:40.324Z,7.53
2023-05-04T08:19:42.518Z,6.97
2023-05-04T08:20:45.064Z,7.13
2023-05-04T08:21:48.735Z,7.40
2023-05-04T08:22:51.060Z,7.00
2023-05-04T08:23:54.127Z,7.50
2023-05-04T08:24:56.254Z,6.78
2023-05-04T08:26:01.123Z,7.45
2023-05-04T08:27:07.934Z,7.75
2023-05-04T08:28:11.993Z,8.00
2023-05-04T08:29:14.931Z,7.72
2023-05-04T08:30:17.293Z,7.88
2023-05-04T08:31:19.685Z,7.75
2023-05-04T08:32:22.030Z,6.88
2023-05-04T08:33:24.554Z,7.85
2023-05-04T08:34:26.906Z,7.70
2023-05-04T08:35:29.396Z,7.20
2023-05-04T08:36:31.718Z,8.18
2023-05-04T08:37:34.032Z,7.50
2023-05-04T08:38:36.291Z,7.88
2023-05-04T08:39:40.525Z,8.07
2023-05-04T08:40:44.268Z,7.55
2023-05-04T08:41:46.485Z,6.97
2023-05-04T08:42:50.608Z,8.02
2023-05-04T08:43:52.878Z,7.50
2023-05-04T08:44:59.223Z,7.60
2023-05-04T08:46:01.637Z,7.20
2023-05-04T08:47:04.848Z,7.78
2023-05-04T08:48:08.337Z,6.82
2023-05-04T08:49:11.638Z,7.43
2023-05-04T08:50:13.917Z,6.80
2023-05-04T08:51:16.524Z,7.47
2023-05-04T08:52:22.284Z,7.57
2023-05-04T08:53:26.611Z,7.03
2023-05-04T08:54:29.809Z,7.68
2023-05-04T08:55:37.564Z,7.55
2023-05-04T08:56:44.396Z,6.82
2023-05-04T08:57:47.614Z,6.45
2023-05-04T08:58:52.396Z,6.72
2023-05-04T08:59:55.833Z,7.60
2023-05-04T09:01:01.947Z,7.63
2023-05-04T09:02:05.243Z,7.43
2023-05-04T09:03:10.624Z,7.93
2023-05-04T09:04:15.656Z,7.28
2023-05-04T09:05:18.478Z,6.82
2023-05-04T09:06:20.924Z,7.57
2023-05-04T09:07:23.375Z,6.95
2023-05-04T09:08:25.649Z,7.35
2023-05-04T09:09:31.712Z,7.18
2023-05-04T09:10:36.576Z,7.25
2023-05-04T09:11:39.224Z,7.40
2023-05-04T09:12:42.548Z,7.53
2023-05-04T09:13:45.028Z,7.22
2023-05-04T09:14:47.547Z,7.15
2023-05-04T09:15:57.468Z,6.55
2023-05-04T09:17:00.860Z,8.05
2023-05-04T09:18:09.445Z,8.15
2023-05-04T09:19:19.389Z,7.88
2023-05-04T09:20:22.058Z,8.23
2023-05-04T09:21:34.529Z,7.43
2023-05-04T09:23:49.276Z,6.55
2023-05-04T09:24:51.826Z,7.32
2023-05-04T09:25:55.554Z,6.72
2023-05-04T09:27:10.263Z,7.13
2023-05-04T09:28:12.600Z,7.07
2023-05-04T09:29:15.745Z,6.85
2023-05-04T09:30:22.030Z,6.95
2023-05-04T09:31:24.935Z,6.47
2023-05-04T09:32:28.532Z,6.80
2023-05-04T09:33:31.924Z,6.70
2023-05-04T09:34:34.719Z,6.10
2023-05-04T09:35:41.125Z,6.43
2023-05-04T09:36:43.684Z,6.60
2023-05-04T09:37:47.004Z,6.63
2023-05-04T09:38:49.328Z,6.63
2023-05-04T09:39:57.429Z,6.32
2023-05-04T09:41:01.624Z,6.55
2023-05-04T09:42:05.955Z,6.05
2023-05-04T09:43:09.459Z,5.72
2023-05-04T09:44:21.292Z,5.35
2023-05-04T09:45:23.594Z,5.60
2023-05-04T09:46:25.939Z,6.38
2023-05-04T09:47:36.309Z,6.40
2023-05-04T09:48:39.086Z,6.85
2023-05-04T09:49:41.358Z,5.97
2023-05-04T09:50:58.268Z,5.60
2023-05-04T09:52:07.330Z,5.90
2023-05-04T09:53:10.520Z,5.30
2023-05-04T09:54:14.180Z,5.97
2023-05-04T09:55:20.593Z,5.47
2023-05-04T09:56:25.583Z,5.60
2023-05-04T09:57:28.460Z,4.93
2023-05-04T09:58:32.043Z,6.45
2023-05-04T09:59:34.366Z,6.43
2023-05-04T10:00:36.664Z,5.93
2023-05-04T10:01:40.909Z,5.93
2023-05-04T10:02:47.248Z,5.45
2023-05-04T10:03:52.490Z,5.20
2023-05-04T10:04:58.390Z,5.53
2023-05-04T10:06:04.443Z,5.53
2023-05-04T10:07:07.206Z,5.38
2023-05-04T10:08:09.990Z,5.70
2023-05-04T10:09:13.163Z,5.32
2023-05-04T10:10:15.691Z,5.28
2023-05-04T10:11:20.431Z,5.60
2023-05-04T10:12:22.854Z,5.60
2023-05-04T10:13:25.970Z,5.22
2023-05-04T10:14:34.091Z,5.45
2023-05-04T10:15:45.482Z,4.53
2023-05-04T10:16:59.522Z,5.75
2023-05-04T10:18:25.479Z,5.20
2023-05-04T10:19:49.678Z,5.00
2023-05-04T10:21:26.073Z,5.10
2023-05-04T10:22:34.058Z,5.13
2023-05-04T10:24:06.251Z,5.38
2023-05-04T10:25:30.651Z,4.68
2023-05-04T10:26:59.711Z,4.78
2023-05-04T10:28:31.335Z,4.60
2023-05-04T10:29:37.364Z,4.57
2023-05-04T10:30:40.304Z,4.22
2023-05-04T10:31:43.965Z,4.70
2023-05-04T10:32:46.386Z,4.43
2023-05-04T10:33:49.031Z,4.32
2023-05-04T10:34:52.170Z,5.28
2023-05-04T10:35:54.879Z,4.30
2023-05-04T10:36:58.989Z,4.63
2023-05-04T10:38:01.311Z,4.53
2023-05-04T10:39:04.674Z,4.75
2023-05-04T10:40:08.406Z,4.85
2023-05-04T10:41:17.441Z,4.70
2023-05-04T10:42:20.301Z,4.75
2023-05-04T10:43:24.025Z,4.72
2023-05-04T10:44:27.585Z,4.72
2023-05-04T10:45:37.806Z,4.90
2023-05-04T10:46:43.446Z,4.85
2023-05-04T10:47:45.689Z,5.18
2023-05-04T10:48:49.824Z,4.72
2023-05-04T10:50:01.481Z,5.10
2023-05-04T10:51:05.999Z,5.45
2023-05-04T10:52:11.499Z,4.97
2023-05-04T10:53:15.575Z,4.95
2023-05-04T10:54:21.317Z,4.85
2023-05-04T10:55:23.984Z,4.25
2023-05-04T10:56:28.692Z,4.90
2023-05-04T10:57:32.003Z,5.03
2023-05-04T10:58:34.341Z,4.53
2023-05-04T10:59:37.840Z,4.32
2023-05-04T11:00:41.852Z,3.97
2023-05-04T11:01:47.749Z,4.22
2023-05-04T11:02:50.426Z,4.38
2023-05-04T11:03:53.826Z,4.60
2023-05-04T11:05:00.352Z,4.32
2023-05-04T11:06:02.709Z,4.10
2023-05-04T11:07:08.264Z,4.28
2023-05-04T11:08:24.434Z,4.55
2023-05-04T11:09:28.110Z,3.47
2023-05-04T11:10:30.351Z,4.07
2023-05-04T11:11:36.756Z,3.63
2023-05-04T11:12:39.089Z,3.83
2023-05-04T11:13:48.983Z,3.85
2023-05-04T11:14:51.186Z,4.03
2023-05-04T11:15:53.864Z,3.60
2023-05-04T11:17:24.000Z,3.40
2023-05-04T11:18:34.912Z,3.88
2023-05-04T11:19:50.973Z,3.65
2023-05-04T11:20:53.453Z,4.18
2023-05-04T11:21:55.664Z,4.00
2023-05-04T11:22:58.427Z,3.95
2023-05-04T11:24:00.891Z,3.45
2023-05-04T11:25:04.094Z,3.55
2023-05-04T11:26:08.610Z,3.30
2023-05-04T11:27:30.363Z,3.70
2023-05-04T11:28:37.163Z,3.17
2023-05-04T11:29:39.407Z,3.63
2023-05-04T11:30:43.890Z,3.20
2023-05-04T11:31:55.729Z,3.70
2023-05-04T11:33:00.321Z,3.80
2023-05-04T11:34:02.773Z,3.40
2023-05-04T11:35:08.706Z,3.90
2023-05-04T11:36:11.384Z,4.00
2023-05-04T11:37:13.831Z,3.53
2023-05-04T11:38:21.697Z,3.50
2023-05-04T11:39:24.000Z,3.03
2023-05-04T11:40:27.448Z,3.60
2023-05-04T11:41:29.823Z,3.47
2023-05-04T11:42:32.655Z,3.63
2023-05-04T11:43:36.495Z,3.63
2023-05-04T11:44:39.151Z,3.42
2023-05-04T11:45:42.434Z,3.47
2023-05-04T11:46:44.885Z,3.05
2023-05-04T11:47:50.169Z,3.65
2023-05-04T11:48:53.691Z,3.38
2023-05-04T11:49:56.220Z,3.05
2023-05-04T11:50:59.096Z,2.90
2023-05-04T11:52:12.857Z,2.97
2023-05-04T11:53:15.696Z,3.17
2023-05-04T11:54:22.195Z,3.10
2023-05-04T11:55:27.317Z,3.22
2023-05-04T11:56:41.479Z,2.92
2023-05-04T11:57:43.600Z,2.90
2023-05-04T11:58:45.771Z,3.10
2023-05-04T11:59:51.270Z,2.78
2023-05-04T12:00:59.793Z,2.92
2023-05-04T12:02:16.045Z,3.08
2023-05-04T12:03:43.187Z,3.30
2023-05-04T12:04:51.096Z,2.97
2023-05-04T12:05:55.977Z,3.00
2023-05-04T12:07:00.202Z,2.55
2023-05-04T12:08:04.703Z,3.20
2023-05-04T12:09:07.329Z,3.13
2023-05-04T12:10:10.134Z,3.13
2023-05-04T12:11:20.017Z,2.50
2023-05-04T12:12:22.265Z,2.70
2023-05-04T12:13:24.614Z,2.70
2023-05-04T12:14:28.308Z,2.72
2023-05-04T12:15:36.366Z,2.67
2023-05-04T12:16:38.892Z,2.50
2023-05-04T12:17:42.088Z,2.95
2023-05-04T12:18:45.497Z,2.75
2023-05-04T12:19:52.694Z,3.00
2023-05-04T12:20:55.022Z,2.95
2023-05-04T12:21:58.791Z,3.05
2023-05-04T12:23:06.854Z,2.85
2023-05-04T12:24:09.106Z,2.60
2023-05-04T12:25:11.601Z,3.05
2023-05-04T12:26:15.701Z,2.60
2023-05-04T12:27:19.528Z,3.05
2023-05-04T12:28:25.177Z,2.80
2023-05-04T12:29:30.546Z,2.92
2023-05-04T12:30:32.948Z,2.47
2023-05-04T12:31:35.267Z,2.97
2023-05-04T12:32:37.781Z,3.00
2023-05-04T12:33:41.139Z,3.30
2023-05-04T12:34:43.500Z,2.47
2023-05-04T12:35:45.834Z,2.60
2023-05-04T12:36:50.874Z,2.85
2023-05-04T12:37:53.346Z,3.00
2023-05-04T12:38:55.579Z,3.03
2023-05-04T12:39:58.347Z,2.42
2023-05-04T12:41:04.117Z,2.95
2023-05-04T12:42:06.507Z,2.88
2023-05-04T12:43:08.831Z,2.30
2023-05-04T12:44:11.781Z,2.55
2023-05-04T12:45:16.099Z,3.05
2023-05-04T12:46:21.374Z,2.58
2023-05-04T12:47:24.729Z,2.92
2023-05-04T12:48:32.991Z,2.80
2023-05-04T12:49:35.366Z,2.80
2023-05-04T12:50:37.573Z,2.80
2023-05-04T12:51:39.904Z,2.53
2023-05-04T12:52:42.099Z,2.95
2023-05-04T12:53:44.345Z,2.90
2023-05-04T12:54:46.652Z,3.00
2023-05-04T12:55:48.889Z,2.80
2023-05-04T12:56:51.147Z,2.78
2023-05-04T12:57:53.362Z,2.90
2023-05-04T12:58:56.316Z,2.80
2023-05-04T12:59:59.085Z,2.67
2023-05-04T13:01:02.188Z,2.85
2023-05-04T13:02:04.599Z,2.97
2023-05-04T13:03:07.513Z,3.30
2023-05-04T13:04:10.011Z,3.00
2023-05-04T13:05:12.967Z,2.70
2023-05-04T13:06:15.342Z,2.90
2023-05-04T13:07:17.585Z,2.53
2023-05-04T13:08:20.220Z,2.75
2023-05-04T13:09:22.464Z,3.08
2023-05-04T13:10:25.223Z,2.92
2023-05-04T13:11:27.381Z,2.83
2023-05-04T13:12:29.683Z,3.00
2023-05-04T13:13:32.006Z,2.67
2023-05-04T13:14:39.385Z,2.58
2023-05-04T13:15:42.533Z,2.83
2023-05-04T13:16:44.909Z,2.65
2023-05-04T13:17:47.411Z,2.60
2023-05-04T13:18:49.691Z,2.53
2023-05-04T13:19:51.868Z,2.30
2023-05-04T13:20:54.974Z,2.58
2023-05-04T13:21:57.191Z,2.88
2023-05-04T13:22:59.556Z,2.88
2023-05-04T13:24:01.939Z,2.50
2023-05-04T13:25:04.811Z,2.83
2023-05-04T13:26:07.231Z,2.70
2023-05-04T13:27:09.657Z,2.50
2023-05-04T13:28:11.890Z,2.58
2023-05-04T13:29:14.060Z,2.65
2023-05-04T13:30:18.161Z,2.28
2023-05-04T13:31:20.638Z,2.67
2023-05-04T13:32:23.034Z,2.70
2023-05-04T13:33:30.253Z,2.65
2023-05-04T13:34:34.543Z,2.40
2023-05-04T13:35:37.436Z,2.42
2023-05-04T13:36:39.784Z,2.63
2023-05-04T13:37:42.188Z,3.08
2023-05-04T13:38:44.436Z,3.28
2023-05-04T13:39:46.954Z,2.83
2023-05-04T13:40:49.172Z,2.80
2023-05-04T13:41:51.639Z,2.70
2023-05-04T13:42:53.828Z,2.50
2023-05-04T13:43:56.079Z,2.60
2023-05-04T13:44:58.270Z,2.58
2023-05-04T13:46:04.022Z,2.35
2023-05-04T13:47:06.573Z,2.30
2023-05-04T13:48:08.847Z,2.47
2023-05-04T13:49:11.060Z,2.65
2023-05-04T13:50:13.564Z,2.67
2023-05-04T13:51:15.912Z,2.30
2023-05-04T13:52:18.166Z,2.47
2023-05-04T13:53:20.453Z,2.33
2023-05-04T13:54:23.306Z,2.40
2023-05-04T13:55:25.709Z,2.42
2023-05-04T13:56:28.044Z,2.40
2023-05-04T13:57:30.718Z,2.72
2023-05-04T13:58:32.883Z,2.40
2023-05-04T13:59:35.185Z,3.28
2023-05-04T14:00:38.055Z,2.63
2023-05-04T14:01:40.855Z,2.60
2023-05-04T14:02:43.150Z,2.63
2023-05-04T14:03:45.731Z,2.55
2023-05-04T14:04:50.161Z,2.60
2023-05-04T14:05:52.550Z,2.65
2023-05-04T14:06:54.891Z,2.75
2023-05-04T14:07:57.325Z,2.40
2023-05-04T14:09:00.062Z,2.42
2023-05-04T14:10:02.485Z,2.70
2023-05-04T14:11:04.666Z,2.83
2023-05-04T14:12:07.076Z,2.63